sensor_id;sensor_type;location;lat;lon;timestamp;pressure;altitude;pressure_sealevel;temperature;humidity
42067;BME280;27734;47.028;28.820;2023-02-05T00:00:59;101033.61;;;-1.66;73.72
42067;BME280;27734;47.028;28.820;2023-02-05T00:03:41;101032.85;;;-1.65;73.74
42067;BME280;27734;47.028;28.820;2023-02-05T00:06:13;101020.27;;;-1.62;73.69
42067;BME280;27734;47.028;28.820;2023-02-05T00:08:44;101034.92;;;-1.61;72.98
42067;BME280;27734;47.028;28.820;2023-02-05T00:11:15;101035.70;;;-1.62;71.90
42067;BME280;27734;47.028;28.820;2023-02-05T00:13:47;101039.32;;;-1.60;72.63
42067;BME280;27734;47.028;28.820;2023-02-05T00:16:20;101045.50;;;-1.58;72.40
42067;BME280;27734;47.028;28.820;2023-02-05T00:18:52;101053.22;;;-1.58;71.80
42067;BME280;27734;47.028;28.820;2023-02-05T00:21:23;101051.55;;;-1.57;72.08
42067;BME280;27734;47.028;28.820;2023-02-05T00:23:54;101048.08;;;-1.58;71.47
42067;BME280;27734;47.028;28.820;2023-02-05T00:26:26;101042.17;;;-1.57;70.65
42067;BME280;27734;47.028;28.820;2023-02-05T00:28:57;101055.80;;;-1.58;71.01
42067;BME280;27734;47.028;28.820;2023-02-05T00:31:30;101049.75;;;-1.58;70.68
42067;BME280;27734;47.028;28.820;2023-02-05T00:34:02;101058.38;;;-1.58;71.54
42067;BME280;27734;47.028;28.820;2023-02-05T00:36:34;101054.77;;;-1.60;70.59
42067;BME280;27734;47.028;28.820;2023-02-05T00:39:07;101054.77;;;-1.60;70.79
42067;BME280;27734;47.028;28.820;2023-02-05T00:41:40;101060.66;;;-1.61;70.60
42067;BME280;27734;47.028;28.820;2023-02-05T00:44:11;101058.23;;;-1.59;71.06
42067;BME280;27734;47.028;28.820;2023-02-05T00:46:42;101047.05;;;-1.60;70.39
42067;BME280;27734;47.028;28.820;2023-02-05T00:49:14;101052.94;;;-1.61;70.32
42067;BME280;27734;47.028;28.820;2023-02-05T00:51:45;101055.52;;;-1.61;69.96
42067;BME280;27734;47.028;28.820;2023-02-05T00:54:16;101068.23;;;-1.63;69.65
42067;BME280;27734;47.028;28.820;2023-02-05T00:56:48;101061.45;;;-1.62;69.88
42067;BME280;27734;47.028;28.820;2023-02-05T00:59:19;101057.94;;;-1.63;69.36
42067;BME280;27734;47.028;28.820;2023-02-05T01:01:52;101056.02;;;-1.65;69.14
42067;BME280;27734;47.028;28.820;2023-02-05T01:04:23;101056.77;;;-1.66;68.31
42067;BME280;27734;47.028;28.820;2023-02-05T01:06:54;101057.37;;;-1.69;68.77
42067;BME280;27734;47.028;28.820;2023-02-05T01:09:26;101056.34;;;-1.71;69.92
42067;BME280;27734;47.028;28.820;2023-02-05T01:11:57;101074.95;;;-1.73;69.66
42067;BME280;27734;47.028;28.820;2023-02-05T01:14:30;101068.02;;;-1.74;68.52
42067;BME280;27734;47.028;28.820;2023-02-05T01:17:01;101076.63;;;-1.74;68.56
42067;BME280;27734;47.028;28.820;2023-02-05T01:19:33;101078.16;;;-1.76;68.10
42067;BME280;27734;47.028;28.820;2023-02-05T01:22:05;101071.95;;;-1.78;68.26
42067;BME280;27734;47.028;28.820;2023-02-05T01:24:36;101084.67;;;-1.79;67.33
42067;BME280;27734;47.028;28.820;2023-02-05T01:27:07;101082.88;;;-1.81;68.81
42067;BME280;27734;47.028;28.820;2023-02-05T01:29:38;101085.31;;;-1.82;68.35
42067;BME280;27734;47.028;28.820;2023-02-05T01:32:10;101079.88;;;-1.85;68.55
42067;BME280;27734;47.028;28.820;2023-02-05T01:34:41;101088.34;;;-1.86;67.43
42067;BME280;27734;47.028;28.820;2023-02-05T01:37:13;101091.52;;;-1.89;67.78
42067;BME280;27734;47.028;28.820;2023-02-05T01:39:45;101091.52;;;-1.89;68.46
42067;BME280;27734;47.028;28.820;2023-02-05T01:42:19;101089.58;;;-1.91;67.31
42067;BME280;27734;47.028;28.820;2023-02-05T01:47:55;101095.19;;;-1.95;67.12
42067;BME280;27734;47.028;28.820;2023-02-05T01:50:30;101102.01;;;-1.96;68.52
42067;BME280;27734;47.028;28.820;2023-02-05T01:53:04;101103.50;;;-1.98;67.21
42067;BME280;27734;47.028;28.820;2023-02-05T01:55:42;101111.08;;;-2.00;67.16
42067;BME280;27734;47.028;28.820;2023-02-05T01:58:14;101109.14;;;-2.02;68.48
42067;BME280;27734;47.028;28.820;2023-02-05T02:00:45;101108.06;;;-2.04;67.29
42067;BME280;27734;47.028;28.820;2023-02-05T02:03:18;101103.55;;;-2.07;66.98
42067;BME280;27734;47.028;28.820;2023-02-05T02:05:49;101103.27;;;-2.10;66.74
42067;BME280;27734;47.028;28.820;2023-02-05T02:08:21;101118.25;;;-2.14;67.04
42067;BME280;27734;47.028;28.820;2023-02-05T02:10:54;101108.41;;;-2.19;66.96
42067;BME280;27734;47.028;28.820;2023-02-05T02:13:28;101119.94;;;-2.24;66.55
42067;BME280;27734;47.028;28.820;2023-02-05T02:16:00;101123.11;;;-2.26;66.72
42067;BME280;27734;47.028;28.820;2023-02-05T02:18:33;101120.38;;;-2.28;67.35
42067;BME280;27734;47.028;28.820;2023-02-05T02:21:24;101125.23;;;-2.31;67.11
42067;BME280;27734;47.028;28.820;2023-02-05T02:24:12;101141.73;;;-2.38;67.00
42067;BME280;27734;47.028;28.820;2023-02-05T02:27:02;101127.53;;;-2.43;67.70
42067;BME280;27734;47.028;28.820;2023-02-05T02:29:38;101122.69;;;-2.48;67.04
42067;BME280;27734;47.028;28.820;2023-02-05T02:32:17;101132.67;;;-2.51;67.75
42067;BME280;27734;47.028;28.820;2023-02-05T02:34:57;101134.05;;;-2.55;67.70
42067;BME280;27734;47.028;28.820;2023-02-05T02:37:33;101132.67;;;-2.60;67.78
42067;BME280;27734;47.028;28.820;2023-02-05T02:40:13;101138.13;;;-2.66;67.44
42067;BME280;27734;47.028;28.820;2023-02-05T02:42:50;101138.73;;;-2.68;67.14
42067;BME280;27734;47.028;28.820;2023-02-05T02:45:28;101139.95;;;-2.74;67.62
42067;BME280;27734;47.028;28.820;2023-02-05T02:48:01;101141.31;;;-2.77;68.76
42067;BME280;27734;47.028;28.820;2023-02-05T02:50:36;101139.34;;;-2.80;67.61
42067;BME280;27734;47.028;28.820;2023-02-05T02:53:14;101145.69;;;-2.85;68.26
42067;BME280;27734;47.028;28.820;2023-02-05T02:55:48;101142.97;;;-2.86;68.05
42067;BME280;27734;47.028;28.820;2023-02-05T02:58:24;101151.42;;;-2.87;68.87
42067;BME280;27734;47.028;28.820;2023-02-05T03:00:59;101158.97;;;-2.89;67.69
42067;BME280;27734;47.028;28.820;2023-02-05T03:03:38;101153.53;;;-2.92;68.37
42067;BME280;27734;47.028;28.820;2023-02-05T03:06:13;101153.38;;;-2.94;68.48
42067;BME280;27734;47.028;28.820;2023-02-05T03:08:51;101162.60;;;-2.96;68.86
42067;BME280;27734;47.028;28.820;2023-02-05T03:11:26;101157.47;;;-2.96;68.28
42067;BME280;27734;47.028;28.820;2023-02-05T03:13:58;101162.60;;;-2.96;68.24
42067;BME280;27734;47.028;28.820;2023-02-05T03:16:34;101164.09;;;-2.98;68.48
42067;BME280;27734;47.028;28.820;2023-02-05T03:19:08;101164.71;;;-3.00;69.05
42067;BME280;27734;47.028;28.820;2023-02-05T03:21:43;101161.06;;;-3.02;68.18
42067;BME280;27734;47.028;28.820;2023-02-05T03:24:17;101161.83;;;-3.03;68.77
42067;BME280;27734;47.028;28.820;2023-02-05T03:26:49;101168.77;;;-3.02;69.28
42067;BME280;27734;47.028;28.820;2023-02-05T03:29:27;101166.04;;;-3.04;68.54
42067;BME280;27734;47.028;28.820;2023-02-05T03:32:09;101166.81;;;-3.05;68.41
42067;BME280;27734;47.028;28.820;2023-02-05T03:34:53;101168.61;;;-3.04;69.48
42067;BME280;27734;47.028;28.820;2023-02-05T03:37:39;101177.09;;;-3.05;69.63
42067;BME280;27734;47.028;28.820;2023-02-05T03:40:19;101171.17;;;-3.04;68.45
42067;BME280;27734;47.028;28.820;2023-02-05T03:43:00;101177.55;;;-3.00;69.69
42067;BME280;27734;47.028;28.820;2023-02-05T03:45:44;101181.32;;;-2.97;68.66
42067;BME280;27734;47.028;28.820;2023-02-05T03:48:43;101180.58;;;-2.96;69.68
42067;BME280;27734;47.028;28.820;2023-02-05T03:51:26;101177.23;;;-2.95;68.87
42067;BME280;27734;47.028;28.820;2023-02-05T03:54:03;101180.88;;;-2.93;69.00
42067;BME280;27734;47.028;28.820;2023-02-05T03:56:43;101182.09;;;-2.89;69.14
42067;BME280;27734;47.028;28.820;2023-02-05T03:59:18;101185.70;;;-2.87;69.10
42067;BME280;27734;47.028;28.820;2023-02-05T04:01:51;101187.69;;;-2.84;69.09
42067;BME280;27734;47.028;28.820;2023-02-05T04:04:24;101186.64;;;-2.86;69.09
42067;BME280;27734;47.028;28.820;2023-02-05T04:06:57;101185.70;;;-2.87;69.87
42067;BME280;27734;47.028;28.820;2023-02-05T04:09:29;101195.08;;;-2.87;69.52
42067;BME280;27734;47.028;28.820;2023-02-05T04:12:02;101203.69;;;-2.87;69.10
42067;BME280;27734;47.028;28.820;2023-02-05T04:14:34;101197.34;;;-2.91;69.90
42067;BME280;27734;47.028;28.820;2023-02-05T04:17:08;101192.80;;;-2.93;69.43
42067;BME280;27734;47.028;28.820;2023-02-05T04:19:41;101202.17;;;-2.94;69.75
42067;BME280;27734;47.028;28.820;2023-02-05T04:22:13;101205.17;;;-2.98;70.29
42067;BME280;27734;47.028;28.820;2023-02-05T04:24:47;101198.09;;;-3.00;69.98
42067;BME280;27734;47.028;28.820;2023-02-05T04:27:20;101202.14;;;-3.02;69.90
42067;BME280;27734;47.028;28.820;2023-02-05T04:29:53;101209.69;;;-3.04;69.33
42067;BME280;27734;47.028;28.820;2023-02-05T04:32:25;101210.31;;;-3.07;69.99
42067;BME280;27734;47.028;28.820;2023-02-05T04:34:57;101211.05;;;-3.08;69.94
42067;BME280;27734;47.028;28.820;2023-02-05T04:37:30;101209.84;;;-3.11;70.45
42067;BME280;27734;47.028;28.820;2023-02-05T04:40:03;101227.81;;;-3.11;70.16
42067;BME280;27734;47.028;28.820;2023-02-05T04:42:35;101212.56;;;-3.10;70.07
42067;BME280;27734;47.028;28.820;2023-02-05T04:45:08;101218.59;;;-3.09;69.77
42067;BME280;27734;47.028;28.820;2023-02-05T04:47:41;101211.64;;;-3.10;70.81
42067;BME280;27734;47.028;28.820;2023-02-05T04:50:13;101216.61;;;-3.12;70.04
42067;BME280;27734;47.028;28.820;2023-02-05T04:52:45;101210.59;;;-3.12;70.29
42067;BME280;27734;47.028;28.820;2023-02-05T04:55:17;101196.85;;;-3.13;70.29
42067;BME280;27734;47.028;28.820;2023-02-05T04:57:50;101209.06;;;-3.10;69.72
42067;BME280;27734;47.028;28.820;2023-02-05T05:00:22;101210.00;;;-3.10;70.33
42067;BME280;27734;47.028;28.820;2023-02-05T05:02:54;101201.37;;;-3.10;70.50
42067;BME280;27734;47.028;28.820;2023-02-05T05:05:27;101216.03;;;-3.09;70.31
42067;BME280;27734;47.028;28.820;2023-02-05T05:08:01;101214.36;;;-3.09;70.01
42067;BME280;27734;47.028;28.820;2023-02-05T05:10:33;101218.91;;;-3.06;70.90
42067;BME280;27734;47.028;28.820;2023-02-05T05:13:05;101226.61;;;-3.06;70.82
42067;BME280;27734;47.028;28.820;2023-02-05T05:15:37;101224.20;;;-3.04;69.79
42067;BME280;27734;47.028;28.820;2023-02-05T05:18:10;101213.34;;;-3.02;70.41
42067;BME280;27734;47.028;28.820;2023-02-05T05:20:42;101221.94;;;-3.01;70.37
42067;BME280;27734;47.028;28.820;2023-02-05T05:23:14;101221.52;;;-2.97;70.23
42067;BME280;27734;47.028;28.820;2023-02-05T05:25:47;101217.58;;;-2.94;70.62
42067;BME280;27734;47.028;28.820;2023-02-05T05:28:20;101224.86;;;-2.90;70.75
42067;BME280;27734;47.028;28.820;2023-02-05T05:30:52;101226.06;;;-2.86;71.33
42067;BME280;27734;47.028;28.820;2023-02-05T05:33:25;101232.25;;;-2.84;70.43
42067;BME280;27734;47.028;28.820;2023-02-05T05:35:57;101228.20;;;-2.82;71.13
42067;BME280;27734;47.028;28.820;2023-02-05T05:38:29;101229.40;;;-2.78;71.46
42067;BME280;27734;47.028;28.820;2023-02-05T05:41:02;101228.66;;;-2.77;71.21
42067;BME280;27734;47.028;28.820;2023-02-05T05:43:53;101227.88;;;-2.76;71.37
42067;BME280;27734;47.028;28.820;2023-02-05T05:46:26;101234.10;;;-2.74;71.28
42067;BME280;27734;47.028;28.820;2023-02-05T05:49:00;101235.16;;;-2.72;70.39
42067;BME280;27734;47.028;28.820;2023-02-05T05:51:32;101240.75;;;-2.67;71.50
42067;BME280;27734;47.028;28.820;2023-02-05T05:54:04;101240.31;;;-2.63;71.65
42067;BME280;27734;47.028;28.820;2023-02-05T05:56:37;101237.28;;;-2.59;70.83
42067;BME280;27734;47.028;28.820;2023-02-05T05:59:09;101248.76;;;-2.56;70.75
42067;BME280;27734;47.028;28.820;2023-02-05T06:01:42;101249.06;;;-2.53;71.18
42067;BME280;27734;47.028;28.820;2023-02-05T06:04:14;101245.75;;;-2.51;71.37
42067;BME280;27734;47.028;28.820;2023-02-05T06:06:46;101245.91;;;-2.50;70.68
42067;BME280;27734;47.028;28.820;2023-02-05T06:09:18;101245.16;;;-2.49;71.56
42067;BME280;27734;47.028;28.820;2023-02-05T06:11:51;101249.52;;;-2.48;70.97
42067;BME280;27734;47.028;28.820;2023-02-05T06:14:24;101258.31;;;-2.46;71.00
42067;BME280;27734;47.028;28.820;2023-02-05T06:16:56;101245.47;;;-2.46;71.64
42067;BME280;27734;47.028;28.820;2023-02-05T06:19:29;101255.13;;;-2.43;70.77
42067;BME280;27734;47.028;28.820;2023-02-05T06:22:01;101261.65;;;-2.38;71.40
42067;BME280;27734;47.028;28.820;2023-02-05T06:24:33;101262.70;;;-2.36;70.91
42067;BME280;27734;47.028;28.820;2023-02-05T06:27:05;101261.63;;;-2.29;70.34
42067;BME280;27734;47.028;28.820;2023-02-05T06:29:37;101264.96;;;-2.22;70.71
42067;BME280;27734;47.028;28.820;2023-02-05T06:32:10;101271.02;;;-2.12;70.32
42067;BME280;27734;47.028;28.820;2023-02-05T06:34:42;101276.02;;;-2.05;70.39
42067;BME280;27734;47.028;28.820;2023-02-05T06:37:14;101275.69;;;-2.00;70.14
42067;BME280;27734;47.028;28.820;2023-02-05T06:39:47;101272.52;;;-1.88;70.62
42067;BME280;27734;47.028;28.820;2023-02-05T06:42:19;101283.23;;;-1.75;69.78
42067;BME280;27734;47.028;28.820;2023-02-05T06:44:51;101286.25;;;-1.61;70.39
42067;BME280;27734;47.028;28.820;2023-02-05T06:47:23;101288.03;;;-1.52;71.01
42067;BME280;27734;47.028;28.820;2023-02-05T06:49:55;101293.31;;;-1.41;69.76
42067;BME280;27734;47.028;28.820;2023-02-05T06:52:28;101302.08;;;-1.39;69.20
42067;BME280;27734;47.028;28.820;2023-02-05T06:55:00;101292.88;;;-1.46;69.14
42067;BME280;27734;47.028;28.820;2023-02-05T06:57:32;101296.34;;;-1.46;69.09
42067;BME280;27734;47.028;28.820;2023-02-05T07:00:05;101300.59;;;-1.46;69.55
42067;BME280;27734;47.028;28.820;2023-02-05T07:02:38;101291.05;;;-1.47;68.31
42067;BME280;27734;47.028;28.820;2023-02-05T07:05:10;101302.54;;;-1.43;69.68
42067;BME280;27734;47.028;28.820;2023-02-05T07:07:42;101299.21;;;-1.42;68.53
42067;BME280;27734;47.028;28.820;2023-02-05T07:10:15;101303.91;;;-1.38;68.75
42067;BME280;27734;47.028;28.820;2023-02-05T07:12:48;101297.38;;;-1.35;68.13
42067;BME280;27734;47.028;28.820;2023-02-05T07:15:20;101298.27;;;-1.34;68.19
42067;BME280;27734;47.028;28.820;2023-02-05T07:17:52;101303.28;;;-1.36;67.16
42067;BME280;27734;47.028;28.820;2023-02-05T07:20:25;101303.61;;;-1.41;66.40
42067;BME280;27734;47.028;28.820;2023-02-05T07:22:57;101302.39;;;-1.45;66.72
42067;BME280;27734;47.028;28.820;2023-02-05T07:25:30;101301.50;;;-1.46;66.77
42067;BME280;27734;47.028;28.820;2023-02-05T07:28:07;101286.80;;;-1.47;65.20
42067;BME280;27734;47.028;28.820;2023-02-05T07:30:39;101289.22;;;-1.48;65.61
42067;BME280;27734;47.028;28.820;2023-02-05T07:33:11;101299.81;;;-1.45;63.82
42067;BME280;27734;47.028;28.820;2023-02-05T07:35:43;101303.47;;;-1.43;63.89
42067;BME280;27734;47.028;28.820;2023-02-05T07:38:15;101296.49;;;-1.44;60.43
42067;BME280;27734;47.028;28.820;2023-02-05T07:40:48;101288.77;;;-1.44;61.18
42067;BME280;27734;47.028;28.820;2023-02-05T07:43:20;101312.84;;;-1.43;60.88
42067;BME280;27734;47.028;28.820;2023-02-05T07:45:57;101311.05;;;-1.45;60.40
42067;BME280;27734;47.028;28.820;2023-02-05T07:48:30;101309.07;;;-1.47;61.07
42067;BME280;27734;47.028;28.820;2023-02-05T07:51:03;101300.11;;;-1.42;59.59
42067;BME280;27734;47.028;28.820;2023-02-05T07:53:35;101297.23;;;-1.36;59.83
42067;BME280;27734;47.028;28.820;2023-02-05T07:56:08;101312.23;;;-1.32;58.54
42067;BME280;27734;47.028;28.820;2023-02-05T07:58:40;101315.53;;;-1.24;60.35
42067;BME280;27734;47.028;28.820;2023-02-05T08:01:12;101300.17;;;-1.14;61.83
42067;BME280;27734;47.028;28.820;2023-02-05T08:03:45;101301.78;;;-0.97;60.44
42067;BME280;27734;47.028;28.820;2023-02-05T08:06:17;101314.81;;;-0.96;58.26
42067;BME280;27734;47.028;28.820;2023-02-05T08:08:49;101327.70;;;-1.04;54.45
42067;BME280;27734;47.028;28.820;2023-02-05T08:11:21;101304.81;;;-1.01;55.05
42067;BME280;27734;47.028;28.820;2023-02-05T08:13:54;101317.15;;;-1.07;56.11
42067;BME280;27734;47.028;28.820;2023-02-05T08:16:26;101320.27;;;-1.01;57.26
42067;BME280;27734;47.028;28.820;2023-02-05T08:18:58;101307.69;;;-0.98;56.58
42067;BME280;27734;47.028;28.820;2023-02-05T08:21:30;101303.08;;;-0.83;57.68
42067;BME280;27734;47.028;28.820;2023-02-05T08:24:02;101321.37;;;-0.71;54.88
42067;BME280;27734;47.028;28.820;2023-02-05T08:26:35;101314.86;;;-0.49;56.10
42067;BME280;27734;47.028;28.820;2023-02-05T08:29:07;101320.69;;;-0.32;57.53
42067;BME280;27734;47.028;28.820;2023-02-05T08:31:40;101315.30;;;-0.25;55.34
42067;BME280;27734;47.028;28.820;2023-02-05T08:34:12;101318.25;;;-0.31;52.96
42067;BME280;27734;47.028;28.820;2023-02-05T08:36:46;101322.01;;;-0.27;55.23
42067;BME280;27734;47.028;28.820;2023-02-05T08:39:18;101314.08;;;-0.20;54.73
42067;BME280;27734;47.028;28.820;2023-02-05T08:41:50;101323.13;;;-0.15;53.68
42067;BME280;27734;47.028;28.820;2023-02-05T08:44:22;101330.12;;;-0.14;52.85
42067;BME280;27734;47.028;28.820;2023-02-05T08:46:54;101325.05;;;-0.31;52.59
42067;BME280;27734;47.028;28.820;2023-02-05T08:49:27;101320.02;;;-0.49;52.27
42067;BME280;27734;47.028;28.820;2023-02-05T08:51:59;101324.31;;;-0.58;53.60
42067;BME280;27734;47.028;28.820;2023-02-05T08:54:32;101333.34;;;-0.72;52.95
42067;BME280;27734;47.028;28.820;2023-02-05T08:57:04;101326.99;;;-0.76;53.27
42067;BME280;27734;47.028;28.820;2023-02-05T08:59:36;101322.56;;;-0.68;54.45
42067;BME280;27734;47.028;28.820;2023-02-05T09:02:11;101314.83;;;-0.68;54.56
42067;BME280;27734;47.028;28.820;2023-02-05T09:04:44;101328.65;;;-0.48;54.46
42067;BME280;27734;47.028;28.820;2023-02-05T09:07:17;101312.02;;;-0.33;54.43
42067;BME280;27734;47.028;28.820;2023-02-05T09:09:49;101316.52;;;-0.22;54.14
42067;BME280;27734;47.028;28.820;2023-02-05T09:12:21;101307.38;;;-0.18;53.23
42067;BME280;27734;47.028;28.820;2023-02-05T09:14:54;101327.54;;;-0.14;53.62
42067;BME280;27734;47.028;28.820;2023-02-05T09:17:26;101316.70;;;-0.29;53.45
42067;BME280;27734;47.028;28.820;2023-02-05T09:19:58;101305.44;;;-0.48;53.21
42067;BME280;27734;47.028;28.820;2023-02-05T09:22:30;101322.09;;;-0.64;52.80
42067;BME280;27734;47.028;28.820;2023-02-05T09:25:03;101323.59;;;-0.66;53.78
42067;BME280;27734;47.028;28.820;2023-02-05T09:27:35;101306.09;;;-0.51;54.31
42067;BME280;27734;47.028;28.820;2023-02-05T09:30:10;101323.17;;;-0.43;52.40
42067;BME280;27734;47.028;28.820;2023-02-05T09:32:42;101309.42;;;-0.52;51.44
42067;BME280;27734;47.028;28.820;2023-02-05T09:35:15;101325.00;;;-0.69;50.81
42067;BME280;27734;47.028;28.820;2023-02-05T09:37:48;101307.98;;;-0.67;51.85
42067;BME280;27734;47.028;28.820;2023-02-05T09:40:23;101294.98;;;-0.50;51.78
42067;BME280;27734;47.028;28.820;2023-02-05T09:43:02;101291.20;;;-0.26;52.94
42067;BME280;27734;47.028;28.820;2023-02-05T09:45:43;101298.45;;;-0.22;50.73
42067;BME280;27734;47.028;28.820;2023-02-05T09:48:35;101305.64;;;-0.28;51.53
42067;BME280;27734;47.028;28.820;2023-02-05T09:51:12;101314.73;;;-0.31;52.26
42067;BME280;27734;47.028;28.820;2023-02-05T09:53:49;101304.70;;;-0.28;52.12
42067;BME280;27734;47.028;28.820;2023-02-05T09:56:24;101296.63;;;-0.23;52.19
42067;BME280;27734;47.028;28.820;2023-02-05T09:58:58;101301.94;;;-0.21;51.30
42067;BME280;27734;47.028;28.820;2023-02-05T10:01:44;101307.09;;;-0.21;51.98
42067;BME280;27734;47.028;28.820;2023-02-05T10:04:19;101295.65;;;-0.14;51.37
42067;BME280;27734;47.028;28.820;2023-02-05T10:07:16;101297.47;;;0.06;52.06
42067;BME280;27734;47.028;28.820;2023-02-05T10:10:15;101294.41;;;0.10;51.18
42067;BME280;27734;47.028;28.820;2023-02-05T10:13:28;101318.48;;;0.00;48.53
42067;BME280;27734;47.028;28.820;2023-02-05T10:16:21;101297.02;;;0.20;50.14
42067;BME280;27734;47.028;28.820;2023-02-05T10:19:16;101290.07;;;0.19;50.24
42067;BME280;27734;47.028;28.820;2023-02-05T10:22:13;101291.27;;;0.04;48.96
42067;BME280;27734;47.028;28.820;2023-02-05T10:27:51;101288.75;;;-0.24;50.01
42067;BME280;27734;47.028;28.820;2023-02-05T10:30:31;101273.84;;;-0.18;50.22
42067;BME280;27734;47.028;28.820;2023-02-05T10:33:14;101269.85;;;-0.14;50.73
42067;BME280;27734;47.028;28.820;2023-02-05T10:35:56;101284.44;;;-0.15;51.25
42067;BME280;27734;47.028;28.820;2023-02-05T10:38:33;101292.38;;;-0.22;50.54
42067;BME280;27734;47.028;28.820;2023-02-05T10:41:13;101278.06;;;-0.38;49.66
42067;BME280;27734;47.028;28.820;2023-02-05T10:43:51;101277.13;;;-0.29;49.41
42067;BME280;27734;47.028;28.820;2023-02-05T10:46:29;101280.82;;;-0.17;49.95
42067;BME280;27734;47.028;28.820;2023-02-05T10:49:09;101268.66;;;0.01;50.10
42067;BME280;27734;47.028;28.820;2023-02-05T10:51:45;101265.94;;;-0.01;49.28
42067;BME280;27734;47.028;28.820;2023-02-05T10:54:22;101275.66;;;-0.17;49.35
42067;BME280;27734;47.028;28.820;2023-02-05T10:56:56;101284.44;;;-0.34;48.79
42067;BME280;27734;47.028;28.820;2023-02-05T10:59:31;101292.59;;;-0.29;49.69
42067;BME280;27734;47.028;28.820;2023-02-05T11:02:07;101269.99;;;-0.13;49.71
42067;BME280;27734;47.028;28.820;2023-02-05T11:04:44;101284.52;;;-0.05;49.75
42067;BME280;27734;47.028;28.820;2023-02-05T11:07:24;101276.22;;;-0.11;49.90
42067;BME280;27734;47.028;28.820;2023-02-05T11:10:13;101290.58;;;-0.23;49.62
42067;BME280;27734;47.028;28.820;2023-02-05T11:12:49;101275.58;;;-0.27;50.99
42067;BME280;27734;47.028;28.820;2023-02-05T11:15:25;101288.67;;;-0.34;50.87
42067;BME280;27734;47.028;28.820;2023-02-05T11:17:59;101294.47;;;-0.37;50.79
42067;BME280;27734;47.028;28.820;2023-02-05T11:20:34;101274.17;;;-0.24;49.55
42067;BME280;27734;47.028;28.820;2023-02-05T11:23:13;101290.86;;;-0.20;50.27
42067;BME280;27734;47.028;28.820;2023-02-05T11:25:55;101275.38;;;-0.20;50.48
42067;BME280;27734;47.028;28.820;2023-02-05T11:28:29;101290.49;;;-0.33;50.12
42067;BME280;27734;47.028;28.820;2023-02-05T11:31:18;101284.67;;;-0.50;50.54
42067;BME280;27734;47.028;28.820;2023-02-05T11:33:51;101277.91;;;-0.58;51.03
42067;BME280;27734;47.028;28.820;2023-02-05T11:36:48;101271.31;;;-0.46;50.97
42067;BME280;27734;47.028;28.820;2023-02-05T11:39:30;101278.02;;;-0.29;50.75
42067;BME280;27734;47.028;28.820;2023-02-05T11:42:17;101278.38;;;-0.15;51.14
42067;BME280;27734;47.028;28.820;2023-02-05T11:44:52;101284.37;;;-0.06;50.71
42067;BME280;27734;47.028;28.820;2023-02-05T11:47:28;101275.16;;;-0.13;49.68
42067;BME280;27734;47.028;28.820;2023-02-05T11:50:03;101285.56;;;-0.22;50.85
42067;BME280;27734;47.028;28.820;2023-02-05T11:52:37;101285.56;;;-0.22;49.99
42067;BME280;27734;47.028;28.820;2023-02-05T11:55:24;101292.17;;;-0.15;49.71
42067;BME280;27734;47.028;28.820;2023-02-05T11:58:01;101289.45;;;-0.16;50.17
42067;BME280;27734;47.028;28.820;2023-02-05T12:00:34;101285.70;;;-0.20;49.99
42067;BME280;27734;47.028;28.820;2023-02-05T12:03:16;101291.34;;;-0.24;50.13
42067;BME280;27734;47.028;28.820;2023-02-05T12:05:52;101274.88;;;-0.35;49.75
42067;BME280;27734;47.028;28.820;2023-02-05T12:08:31;101289.50;;;-0.44;49.41
42067;BME280;27734;47.028;28.820;2023-02-05T12:11:15;101272.00;;;-0.57;50.41
42067;BME280;27734;47.028;28.820;2023-02-05T12:13:58;101280.63;;;-0.57;49.80
42067;BME280;27734;47.028;28.820;2023-02-05T12:16:44;101273.83;;;-0.56;50.68
42067;BME280;27734;47.028;28.820;2023-02-05T12:19:20;101280.45;;;-0.49;50.90
42067;BME280;27734;47.028;28.820;2023-02-05T12:21:58;101266.38;;;-0.53;49.92
42067;BME280;27734;47.028;28.820;2023-02-05T12:24:48;101268.17;;;-0.52;50.04
42067;BME280;27734;47.028;28.820;2023-02-05T12:27:36;101272.98;;;-0.65;50.54
42067;BME280;27734;47.028;28.820;2023-02-05T12:30:31;101278.03;;;-0.76;49.99
42067;BME280;27734;47.028;28.820;2023-02-05T12:33:21;101278.20;;;-0.83;50.12
42067;BME280;27734;47.028;28.820;2023-02-05T12:36:10;101277.27;;;-0.75;50.76
42067;BME280;27734;47.028;28.820;2023-02-05T12:38:56;101272.62;;;-0.60;50.61
42067;BME280;27734;47.028;28.820;2023-02-05T12:41:38;101265.97;;;-0.39;51.60
42067;BME280;27734;47.028;28.820;2023-02-05T12:44:24;101275.86;;;-0.24;50.96
42067;BME280;27734;47.028;28.820;2023-02-05T12:47:11;101276.42;;;-0.18;50.32
42067;BME280;27734;47.028;28.820;2023-02-05T12:50:02;101296.30;;;-0.17;50.48
42067;BME280;27734;47.028;28.820;2023-02-05T12:52:48;101296.97;;;-0.28;50.33
42067;BME280;27734;47.028;28.820;2023-02-05T12:55:37;101290.49;;;-0.33;50.80
42067;BME280;27734;47.028;28.820;2023-02-05T12:58:13;101289.88;;;-0.31;51.16
42067;BME280;27734;47.028;28.820;2023-02-05T13:00:50;101295.93;;;-0.30;51.80
42067;BME280;27734;47.028;28.820;2023-02-05T13:03:28;101289.45;;;-0.35;51.07
42067;BME280;27734;47.028;28.820;2023-02-05T13:06:05;101288.10;;;-0.41;51.19
42067;BME280;27734;47.028;28.820;2023-02-05T13:08:44;101294.52;;;-0.46;52.17
42067;BME280;27734;47.028;28.820;2023-02-05T13:11:22;101300.71;;;-0.44;52.04
42067;BME280;27734;47.028;28.820;2023-02-05T13:13:59;101298.27;;;-0.42;52.45
42067;BME280;27734;47.028;28.820;2023-02-05T13:16:36;101300.28;;;-0.48;52.85
42067;BME280;27734;47.028;28.820;2023-02-05T13:19:21;101306.23;;;-0.49;53.33
42067;BME280;27734;47.028;28.820;2023-02-05T13:21:56;101303.98;;;-0.55;53.90
42067;BME280;27734;47.028;28.820;2023-02-05T13:24:51;101298.97;;;-0.53;53.61
42067;BME280;27734;47.028;28.820;2023-02-05T13:27:43;101297.56;;;-0.50;54.01
42067;BME280;27734;47.028;28.820;2023-02-05T13:30:39;101293.20;;;-0.51;53.93